createdAt,value
2022-08-19T00:00:39.942Z,39.20
2022-08-19T00:01:40.088Z,39.60
2022-08-19T00:02:40.331Z,41.10
2022-08-19T00:03:41.278Z,43.00
2022-08-19T00:04:40.426Z,40.70
2022-08-19T00:05:40.553Z,43.00
2022-08-19T00:06:40.675Z,40.70
2022-08-19T00:07:40.798Z,45.70
2022-08-19T00:08:42.816Z,49.60
2022-08-19T00:09:41.078Z,47.40
2022-08-19T00:10:41.257Z,41.50
2022-08-19T00:11:41.294Z,42.40
2022-08-19T00:12:43.929Z,39.40
2022-08-19T00:13:42.508Z,38.20
2022-08-19T00:14:41.628Z,46.20
2022-08-19T00:15:41.784Z,41.60
2022-08-19T00:16:42.451Z,46.20
2022-08-19T00:17:42.119Z,48.80
2022-08-19T00:18:42.128Z,50.20
2022-08-19T00:19:42.251Z,48.80
2022-08-19T00:20:42.405Z,48.10
2022-08-19T00:21:42.579Z,46.30
2022-08-19T00:22:42.710Z,47.50
2022-08-19T00:23:43.046Z,44.20
2022-08-19T00:24:42.947Z,45.80
2022-08-19T00:25:44.054Z,51.20
2022-08-19T00:26:43.246Z,48.20
2022-08-19T00:27:43.351Z,51.10
2022-08-19T00:28:43.498Z,45.60
2022-08-19T00:29:43.621Z,54.20
2022-08-19T00:30:43.717Z,46.90
2022-08-19T00:31:43.841Z,45.00
2022-08-19T00:32:44.002Z,43.10
2022-08-19T00:33:44.146Z,50.70
2022-08-19T00:34:44.287Z,43.30
2022-08-19T00:35:44.794Z,49.80
2022-08-19T00:36:44.532Z,55.60
2022-08-19T00:37:44.749Z,50.90
2022-08-19T00:38:44.918Z,48.70
2022-08-19T00:39:44.952Z,46.60
2022-08-19T00:40:45.097Z,44.80
2022-08-19T00:41:47.670Z,41.30
2022-08-19T00:42:45.353Z,41.90
2022-08-19T00:43:45.496Z,42.20
2022-08-19T00:44:45.635Z,42.60
2022-08-19T00:45:45.785Z,44.80
2022-08-19T00:46:51.628Z,43.90
2022-08-19T00:47:47.045Z,38.80
2022-08-19T00:48:46.167Z,36.90
2022-08-19T00:49:46.304Z,40.30
2022-08-19T00:50:51.620Z,37.40
2022-08-19T00:51:47.543Z,39.70
2022-08-19T00:52:46.705Z,38.40
2022-08-19T00:53:46.856Z,41.20
2022-08-19T00:54:49.695Z,43.60
2022-08-19T00:55:48.074Z,41.10
2022-08-19T00:56:47.265Z,49.20
2022-08-19T00:57:47.404Z,44.70
2022-08-19T00:58:47.512Z,46.80
2022-08-19T01:00:01.924Z,51.50
2022-08-19T01:00:48.725Z,53.20
2022-08-19T01:01:47.912Z,46.90
2022-08-19T01:02:47.971Z,46.90
2022-08-19T01:03:57.218Z,47.90
2022-08-19T01:04:49.194Z,52.60
2022-08-19T01:05:48.324Z,40.20
2022-08-19T01:06:48.474Z,42.10
2022-08-19T01:07:48.593Z,44.50
2022-08-19T01:08:50.086Z,44.20
2022-08-19T01:09:48.844Z,42.80
2022-08-19T01:10:48.977Z,49.90
2022-08-19T01:11:49.120Z,50.30
2022-08-19T01:12:50.255Z,45.30
2022-08-19T01:13:50.392Z,50.00
2022-08-19T01:14:49.544Z,63.60
2022-08-19T01:15:49.679Z,56.40
2022-08-19T01:16:49.809Z,56.10
2022-08-19T01:17:49.949Z,58.90
2022-08-19T01:18:50.076Z,59.30
2022-08-19T01:19:50.206Z,62.50
2022-08-19T01:20:50.355Z,54.00
2022-08-19T01:21:50.485Z,56.60
2022-08-19T01:22:50.662Z,49.60
2022-08-19T01:23:50.795Z,49.10
2022-08-19T01:24:50.934Z,53.80
2022-08-19T01:25:51.136Z,52.70
2022-08-19T01:26:51.155Z,55.60
2022-08-19T01:27:53.512Z,55.90
2022-08-19T01:28:51.875Z,52.00
2022-08-19T01:29:51.576Z,50.50
2022-08-19T01:30:51.705Z,49.00
2022-08-19T01:31:51.820Z,48.10
2022-08-19T01:32:52.073Z,51.90
2022-08-19T01:33:52.180Z,48.20
2022-08-19T01:34:52.315Z,57.00
2022-08-19T01:35:52.442Z,52.40
2022-08-19T01:36:52.603Z,55.00
2022-08-19T01:37:52.756Z,50.70
2022-08-19T01:38:52.902Z,54.70
2022-08-19T01:39:53.080Z,62.60
2022-08-19T01:40:53.121Z,64.40
2022-08-19T01:41:53.257Z,76.30
2022-08-19T01:42:53.603Z,92.90
2022-08-19T01:44:17.227Z,100.30
2022-08-19T01:44:54.713Z,116.50
2022-08-19T01:45:53.828Z,145.30
2022-08-19T01:46:53.985Z,153.40
2022-08-19T01:48:01.377Z,163.10
2022-08-19T01:48:55.219Z,175.70
2022-08-19T01:49:54.356Z,177.20
2022-08-19T01:50:54.486Z,191.90
2022-08-19T01:51:54.629Z,187.40
2022-08-19T01:53:06.272Z,167.30
2022-08-19T01:53:55.861Z,155.80
2022-08-19T01:54:55.017Z,176.50
2022-08-19T01:55:55.163Z,139.10
2022-08-19T01:56:55.304Z,139.00
2022-08-19T01:57:55.447Z,143.90
2022-08-19T01:58:55.600Z,160.60
2022-08-19T01:59:55.763Z,153.00
2022-08-19T02:00:55.923Z,169.00
2022-08-19T02:01:56.063Z,154.40
2022-08-19T02:02:56.212Z,139.80
2022-08-19T02:03:56.875Z,126.30
2022-08-19T02:04:56.515Z,154.00
2022-08-19T02:05:56.643Z,150.20
2022-08-19T02:06:56.792Z,162.90
2022-08-19T02:07:56.958Z,229.10
2022-08-19T02:08:57.425Z,210.30
2022-08-19T02:09:57.271Z,294.40
2022-08-19T02:10:57.418Z,273.50
2022-08-19T02:11:57.561Z,265.80
2022-08-19T02:12:57.720Z,251.10
2022-08-19T02:13:57.839Z,248.00
2022-08-19T02:14:57.993Z,287.90
2022-08-19T02:15:58.177Z,266.50
2022-08-19T02:16:58.316Z,291.10
2022-08-19T02:17:58.472Z,290.10
2022-08-19T02:18:58.602Z,263.50
2022-08-19T02:19:58.762Z,284.10
2022-08-19T02:20:58.916Z,267.30
2022-08-19T02:21:59.062Z,263.50
2022-08-19T02:22:59.233Z,258.30
2022-08-19T02:23:59.376Z,259.20
2022-08-19T02:24:59.524Z,257.00
2022-08-19T02:25:59.665Z,248.10
2022-08-19T02:26:59.832Z,241.30
2022-08-19T02:27:59.999Z,241.70
2022-08-19T02:29:00.154Z,228.30
2022-08-19T02:30:00.301Z,225.80
2022-08-19T02:31:00.450Z,232.00
2022-08-19T02:32:00.602Z,213.60
2022-08-19T02:33:00.752Z,201.20
2022-08-19T02:34:00.890Z,194.90
2022-08-19T02:35:01.055Z,209.80
2022-08-19T02:36:01.191Z,201.20
2022-08-19T02:37:03.750Z,235.60
2022-08-19T02:38:01.451Z,214.60
2022-08-19T02:39:01.587Z,213.80
2022-08-19T02:40:01.819Z,208.90
2022-08-19T02:41:01.907Z,206.10
2022-08-19T02:42:02.085Z,211.40
2022-08-19T02:43:02.239Z,202.90
2022-08-19T02:44:26.235Z,195.60
2022-08-19T02:45:03.478Z,212.20
2022-08-19T02:46:03.524Z,208.60
2022-08-19T02:47:02.800Z,213.40
2022-08-19T02:48:03.359Z,221.10
2022-08-19T02:49:04.029Z,236.70
2022-08-19T02:50:03.159Z,234.60
2022-08-19T02:51:03.306Z,237.50
2022-08-19T02:52:03.439Z,236.40
2022-08-19T02:53:03.597Z,246.10
2022-08-19T02:54:03.740Z,237.90
2022-08-19T02:55:03.879Z,252.80
2022-08-19T02:56:04.009Z,262.10
2022-08-19T02:57:04.154Z,258.00
2022-08-19T02:58:04.299Z,250.50
2022-08-19T02:59:04.438Z,262.30
2022-08-19T03:00:04.605Z,238.30
2022-08-19T03:01:04.774Z,266.00
2022-08-19T03:02:04.827Z,263.80
2022-08-19T03:03:04.973Z,235.40
2022-08-19T03:04:05.095Z,240.20
2022-08-19T03:05:05.237Z,230.30
2022-08-19T03:06:05.375Z,245.50
2022-08-19T03:07:11.166Z,248.50
2022-08-19T03:08:06.607Z,256.70
2022-08-19T03:09:05.742Z,247.50
2022-08-19T03:10:05.873Z,234.90
2022-08-19T03:11:06.013Z,263.10
2022-08-19T03:12:06.144Z,257.00
2022-08-19T03:13:06.274Z,242.60
2022-08-19T03:14:06.441Z,258.10
2022-08-19T03:15:06.567Z,261.10
2022-08-19T03:16:06.699Z,256.40
2022-08-19T03:17:06.826Z,248.60
2022-08-19T03:18:06.959Z,232.50
2022-08-19T03:19:07.078Z,229.90
2022-08-19T03:20:07.224Z,230.60
2022-08-19T03:21:07.353Z,231.20
2022-08-19T03:22:08.447Z,225.30
2022-08-19T03:23:07.598Z,236.40
2022-08-19T03:24:07.748Z,243.50
2022-08-19T03:25:07.886Z,253.40
2022-08-19T03:26:15.813Z,248.80
2022-08-19T03:27:09.132Z,244.00
2022-08-19T03:28:08.270Z,254.20
2022-08-19T03:29:08.654Z,247.90
2022-08-19T03:30:08.477Z,269.70
2022-08-19T03:31:44.050Z,236.00
2022-08-19T03:32:09.733Z,235.70
2022-08-19T03:33:09.926Z,253.00
2022-08-19T03:34:10.021Z,242.30
2022-08-19T03:35:09.187Z,263.20
2022-08-19T03:36:09.327Z,240.20
2022-08-19T03:37:09.491Z,252.20
2022-08-19T03:38:09.638Z,250.60
2022-08-19T03:39:09.796Z,249.60
2022-08-19T03:40:10.013Z,248.20
2022-08-19T03:41:10.015Z,248.90
2022-08-19T03:42:38.464Z,242.80
2022-08-19T03:43:11.267Z,253.10
2022-08-19T03:44:14.301Z,248.00
2022-08-19T03:45:11.513Z,264.50
2022-08-19T03:46:10.652Z,277.80
2022-08-19T03:47:10.792Z,282.40
2022-08-19T03:48:10.939Z,259.50
2022-08-19T03:49:11.098Z,227.60
2022-08-19T03:50:11.234Z,238.90
2022-08-19T03:51:11.408Z,243.80
2022-08-19T03:52:11.541Z,250.60
2022-08-19T03:53:11.702Z,263.40
2022-08-19T03:54:18.861Z,259.20
2022-08-19T03:55:11.983Z,255.10
2022-08-19T03:56:12.110Z,244.80
2022-08-19T03:57:12.244Z,250.90
2022-08-19T03:58:12.378Z,223.80
2022-08-19T03:59:12.506Z,237.20
2022-08-19T04:00:14.004Z,245.60
2022-08-19T04:01:12.797Z,247.00
2022-08-19T04:02:12.911Z,235.60
2022-08-19T04:03:13.061Z,228.10
2022-08-19T04:04:13.211Z,233.20
2022-08-19T04:05:13.367Z,224.40
2022-08-19T04:06:13.505Z,229.10
2022-08-19T04:07:13.651Z,228.00
2022-08-19T04:08:14.096Z,242.40
2022-08-19T04:09:13.889Z,220.50
2022-08-19T04:10:14.039Z,229.30
2022-08-19T04:11:14.234Z,205.70
2022-08-19T04:12:14.369Z,221.20
2022-08-19T04:13:14.510Z,214.20
2022-08-19T04:14:14.661Z,215.80
2022-08-19T04:15:14.827Z,227.10
2022-08-19T04:16:14.999Z,214.00
2022-08-19T04:17:15.133Z,193.70
2022-08-19T04:18:15.271Z,211.80
2022-08-19T04:19:15.408Z,203.00
2022-08-19T04:20:15.587Z,218.30
2022-08-19T04:21:15.770Z,218.60
2022-08-19T04:22:15.917Z,220.20
2022-08-19T04:23:16.053Z,216.40
2022-08-19T04:24:16.199Z,209.00
2022-08-19T04:25:16.349Z,198.80
2022-08-19T04:26:16.496Z,215.70
2022-08-19T04:27:16.641Z,226.50
2022-08-19T04:28:16.781Z,225.20
2022-08-19T04:29:16.936Z,221.30
2022-08-19T04:30:17.106Z,214.90
2022-08-19T04:31:17.231Z,211.40
2022-08-19T04:32:17.358Z,215.70
2022-08-19T04:33:17.501Z,212.10
2022-08-19T04:34:18.583Z,214.40
2022-08-19T04:35:21.024Z,215.20
2022-08-19T04:36:18.829Z,207.90
2022-08-19T04:37:17.989Z,214.40
2022-08-19T04:38:18.134Z,216.50
2022-08-19T04:39:18.269Z,220.90
2022-08-19T04:40:18.427Z,203.40
2022-08-19T04:41:18.565Z,217.60
2022-08-19T04:42:18.732Z,189.30
2022-08-19T04:43:18.873Z,193.20
2022-08-19T04:44:19.045Z,189.50
2022-08-19T04:45:19.194Z,191.00
2022-08-19T04:46:39.158Z,202.40
2022-08-19T04:47:20.914Z,176.80
2022-08-19T04:48:27.558Z,188.50
2022-08-19T04:49:20.624Z,185.20
2022-08-19T04:50:19.787Z,190.90
2022-08-19T04:51:19.929Z,196.80
2022-08-19T04:52:20.066Z,199.60
2022-08-19T04:53:20.198Z,184.50
2022-08-19T04:54:37.094Z,192.30
2022-08-19T04:55:21.441Z,181.30
2022-08-19T04:56:20.599Z,181.60
2022-08-19T04:57:20.738Z,176.30
2022-08-19T04:58:20.896Z,173.60
2022-08-19T04:59:21.037Z,179.10
2022-08-19T05:00:21.200Z,157.00
2022-08-19T05:01:21.457Z,153.80
2022-08-19T05:02:21.544Z,148.00
2022-08-19T05:03:21.653Z,144.10
2022-08-19T05:04:21.787Z,162.50
2022-08-19T05:05:21.943Z,163.00
2022-08-19T05:06:22.107Z,184.80
2022-08-19T05:07:22.241Z,153.30
2022-08-19T05:08:31.234Z,160.60
2022-08-19T05:09:23.494Z,149.00
2022-08-19T05:10:22.618Z,138.90
2022-08-19T05:11:26.418Z,134.30
2022-08-19T05:12:25.842Z,126.50
2022-08-19T05:13:23.988Z,126.10
2022-08-19T05:14:23.115Z,108.80
2022-08-19T05:15:23.254Z,119.70
2022-08-19T05:16:23.429Z,129.70
2022-08-19T05:17:27.691Z,126.00
2022-08-19T05:18:24.606Z,133.80
2022-08-19T05:19:23.756Z,119.70
2022-08-19T05:20:23.891Z,119.70
2022-08-19T05:21:24.028Z,118.80
2022-08-19T05:22:24.184Z,112.60
2022-08-19T05:23:24.344Z,119.40
2022-08-19T05:24:24.473Z,117.40
2022-08-19T05:25:24.614Z,121.50
2022-08-19T05:26:24.805Z,124.20
2022-08-19T05:27:24.908Z,123.20
2022-08-19T05:28:25.066Z,125.10
2022-08-19T05:29:25.177Z,129.70
2022-08-19T05:30:37.615Z,131.10
2022-08-19T05:31:26.449Z,126.00
2022-08-19T05:32:25.588Z,129.60
2022-08-19T05:33:25.715Z,130.40
2022-08-19T05:34:25.836Z,141.10
2022-08-19T05:35:25.962Z,141.50
2022-08-19T05:36:26.086Z,125.90
2022-08-19T05:37:26.215Z,155.50
2022-08-19T05:38:26.350Z,151.00
2022-08-19T05:39:26.512Z,146.40
2022-08-19T05:40:26.799Z,151.60
2022-08-19T05:41:26.769Z,167.00
2022-08-19T05:42:26.910Z,152.70
2022-08-19T05:43:27.045Z,159.60
2022-08-19T05:44:27.167Z,154.10
2022-08-19T05:45:27.276Z,148.50
2022-08-19T05:46:28.016Z,144.90
2022-08-19T05:47:27.556Z,165.50
2022-08-19T05:48:27.679Z,151.50
2022-08-19T05:49:27.790Z,147.70
2022-08-19T05:50:27.909Z,155.80
2022-08-19T05:51:29.252Z,136.80
2022-08-19T05:52:28.210Z,146.00
2022-08-19T05:53:28.338Z,131.20
2022-08-19T05:54:28.477Z,133.50
2022-08-19T05:55:28.587Z,148.30
2022-08-19T05:56:28.704Z,142.50
2022-08-19T05:57:28.837Z,144.30
2022-08-19T05:58:28.963Z,158.90
2022-08-19T05:59:29.072Z,149.50
2022-08-19T06:00:29.189Z,132.70
2022-08-19T06:01:29.312Z,142.00
2022-08-19T06:02:29.502Z,149.50
2022-08-19T06:03:29.516Z,140.00
2022-08-19T06:04:29.646Z,134.70
2022-08-19T06:05:29.776Z,132.60
2022-08-19T06:06:29.906Z,137.90
2022-08-19T06:07:30.114Z,134.70
2022-08-19T06:08:34.618Z,134.30
2022-08-19T06:09:30.187Z,131.30
2022-08-19T06:10:30.314Z,141.60
2022-08-19T06:11:30.427Z,109.30
2022-08-19T06:12:30.566Z,100.50
2022-08-19T06:13:33.305Z,111.70
2022-08-19T06:14:30.781Z,108.90
2022-08-19T06:15:30.821Z,103.40
2022-08-19T06:16:30.956Z,120.20
2022-08-19T06:17:31.726Z,93.20
2022-08-19T06:18:31.160Z,94.60
2022-08-19T06:19:31.286Z,92.00
2022-08-19T06:20:54.529Z,80.90
2022-08-19T06:21:32.475Z,81.00
2022-08-19T06:22:31.625Z,95.00
2022-08-19T06:23:31.754Z,80.20
2022-08-19T06:24:31.875Z,77.30
2022-08-19T06:25:32.006Z,74.20
2022-08-19T06:26:32.137Z,80.30
2022-08-19T06:27:32.279Z,78.80
2022-08-19T06:28:32.396Z,73.60
2022-08-19T06:29:32.518Z,67.80
2022-08-19T06:30:32.639Z,65.20
2022-08-19T06:31:32.777Z,67.20
2022-08-19T06:32:32.924Z,62.70
2022-08-19T06:33:33.051Z,65.90
2022-08-19T06:34:33.186Z,73.90
2022-08-19T06:35:33.325Z,71.80
2022-08-19T06:36:33.467Z,72.00
2022-08-19T06:37:33.627Z,69.20
2022-08-19T06:38:33.721Z,70.00
2022-08-19T06:39:33.930Z,76.90
2022-08-19T06:40:34.007Z,70.70
2022-08-19T06:41:33.997Z,61.80
2022-08-19T06:42:34.166Z,70.20
2022-08-19T06:43:34.179Z,70.90
2022-08-19T06:44:34.343Z,64.90
2022-08-19T06:45:35.809Z,61.60
2022-08-19T06:46:35.535Z,60.50
2022-08-19T06:47:34.681Z,53.40
2022-08-19T06:48:39.050Z,62.90
2022-08-19T06:49:35.886Z,58.40
2022-08-19T06:50:35.003Z,60.90
2022-08-19T06:51:35.201Z,69.20
2022-08-19T06:52:36.465Z,59.80
2022-08-19T06:53:35.314Z,64.10
2022-08-19T06:54:37.761Z,56.00
2022-08-19T06:55:36.500Z,58.40
2022-08-19T06:56:35.630Z,62.30
2022-08-19T06:57:35.760Z,65.10
2022-08-19T06:58:35.867Z,65.80
2022-08-19T06:59:35.986Z,61.60
2022-08-19T07:00:36.108Z,59.40
2022-08-19T07:01:36.217Z,58.40
2022-08-19T07:02:36.331Z,60.20
2022-08-19T07:03:37.358Z,53.00
2022-08-19T07:04:36.508Z,59.10
2022-08-19T07:05:37.265Z,64.30
2022-08-19T07:06:44.006Z,58.60
2022-08-19T07:07:37.776Z,58.30
2022-08-19T07:09:37.061Z,58.10
2022-08-19T07:10:37.172Z,62.90
2022-08-19T07:11:38.234Z,58.20
2022-08-19T07:12:38.190Z,54.90
2022-08-19T07:13:37.479Z,54.30
2022-08-19T07:14:37.594Z,55.80
2022-08-19T07:15:37.723Z,49.90
2022-08-19T07:16:42.473Z,46.70
2022-08-19T07:17:39.121Z,46.10
2022-08-19T07:18:38.011Z,44.20
2022-08-19T07:19:38.197Z,36.80
2022-08-19T07:20:38.300Z,41.10
2022-08-19T07:21:38.429Z,41.60
2022-08-19T07:22:38.585Z,41.70
2022-08-19T07:23:38.689Z,37.70
2022-08-19T07:24:38.796Z,38.00
2022-08-19T07:25:39.855Z,39.40
2022-08-19T07:26:39.021Z,39.20
2022-08-19T07:27:39.687Z,37.90
2022-08-19T07:28:39.107Z,41.30
2022-08-19T07:29:40.163Z,39.20
2022-08-19T07:30:39.289Z,40.30
2022-08-19T07:31:39.410Z,43.30
2022-08-19T07:32:39.615Z,39.90
2022-08-19T07:33:39.639Z,40.10
2022-08-19T07:34:40.067Z,41.10
2022-08-19T07:35:39.829Z,37.00
2022-08-19T07:36:39.933Z,35.70
2022-08-19T07:37:40.035Z,32.90
2022-08-19T07:38:40.156Z,35.50
2022-08-19T07:39:40.286Z,36.30
2022-08-19T07:40:40.350Z,29.30
2022-08-19T07:41:40.460Z,32.30
2022-08-19T07:42:40.571Z,32.50
2022-08-19T07:43:40.671Z,31.50
2022-08-19T07:45:40.919Z,30.30
2022-08-19T07:46:41.030Z,34.20
2022-08-19T07:47:58.578Z,32.80
2022-08-19T07:48:42.202Z,31.20
2022-08-19T07:49:41.324Z,32.60
2022-08-19T07:50:41.446Z,31.20
2022-08-19T07:51:41.558Z,29.70
2022-08-19T07:52:41.654Z,28.30
2022-08-19T07:53:41.765Z,30.20
2022-08-19T07:54:41.881Z,30.00
2022-08-19T07:55:43.766Z,31.80
2022-08-19T07:56:42.088Z,31.30
2022-08-19T07:57:42.191Z,33.10
2022-08-19T07:58:42.316Z,31.20
2022-08-19T07:59:42.421Z,28.60
2022-08-19T08:00:42.556Z,26.90
2022-08-19T08:01:42.715Z,28.20
2022-08-19T08:02:42.788Z,28.80
2022-08-19T08:03:42.918Z,27.20
2022-08-19T08:04:43.023Z,30.40
2022-08-19T08:05:44.203Z,28.30
2022-08-19T08:06:43.235Z,29.60
2022-08-19T08:07:46.214Z,28.60
2022-08-19T08:08:44.494Z,29.80
2022-08-19T08:09:43.603Z,26.10
2022-08-19T08:10:44.607Z,26.40
2022-08-19T08:11:44.784Z,25.70
2022-08-19T08:12:43.895Z,26.40
2022-08-19T08:13:45.008Z,26.30
2022-08-19T08:14:44.250Z,27.60
2022-08-19T08:15:44.208Z,25.60
2022-08-19T08:16:47.070Z,24.00
2022-08-19T08:17:49.341Z,27.70
2022-08-19T08:18:50.770Z,25.20
2022-08-19T08:19:45.602Z,26.80
2022-08-19T08:20:44.803Z,28.10
2022-08-19T08:21:44.818Z,25.10
2022-08-19T08:22:44.947Z,23.80
2022-08-19T08:23:45.133Z,24.20
2022-08-19T08:24:45.144Z,23.00
2022-08-19T08:25:45.236Z,21.90
2022-08-19T08:26:46.878Z,23.80
2022-08-19T08:27:46.360Z,24.80
2022-08-19T08:28:47.965Z,24.30
2022-08-19T08:29:45.596Z,24.20
2022-08-19T08:30:45.721Z,25.60
2022-08-19T08:31:45.851Z,26.10
2022-08-19T08:32:46.104Z,27.40
2022-08-19T08:33:46.091Z,22.80
2022-08-19T08:34:47.347Z,25.70
2022-08-19T08:35:47.296Z,24.80
2022-08-19T08:36:46.442Z,22.80
2022-08-19T08:37:46.797Z,25.70
2022-08-19T08:38:46.783Z,24.20
2022-08-19T08:39:47.054Z,24.90
2022-08-19T08:40:46.978Z,23.90
2022-08-19T08:41:47.076Z,25.80
2022-08-19T08:42:47.255Z,25.50
2022-08-19T08:43:47.373Z,26.30
2022-08-19T08:44:47.532Z,24.30
2022-08-19T08:45:47.541Z,25.70
2022-08-19T08:46:48.617Z,24.60
2022-08-19T08:47:47.814Z,24.20
2022-08-19T08:48:47.878Z,25.20
2022-08-19T08:49:51.290Z,23.90
2022-08-19T08:50:48.117Z,23.60
2022-08-19T08:51:48.157Z,26.20
2022-08-19T08:52:49.218Z,26.40
2022-08-19T08:53:48.339Z,25.60
2022-08-19T08:54:54.978Z,26.90
2022-08-19T08:55:49.519Z,22.50
2022-08-19T08:56:48.652Z,23.40
2022-08-19T08:57:48.792Z,25.90
2022-08-19T08:58:53.864Z,24.40
2022-08-19T08:59:49.991Z,27.30
2022-08-19T09:00:49.107Z,23.50
2022-08-19T09:01:49.353Z,24.20
2022-08-19T09:02:50.398Z,24.50
2022-08-19T09:03:49.407Z,24.90
2022-08-19T09:04:49.527Z,27.30
2022-08-19T09:05:49.607Z,25.70
2022-08-19T09:06:49.693Z,27.30
2022-08-19T09:07:49.850Z,26.00
2022-08-19T09:08:50.022Z,25.80
2022-08-19T09:09:50.136Z,23.10
2022-08-19T09:10:55.292Z,26.10
2022-08-19T09:11:51.360Z,28.60
2022-08-19T09:12:50.438Z,27.90
2022-08-19T09:13:50.573Z,26.70
2022-08-19T09:14:52.029Z,25.20
2022-08-19T09:15:50.856Z,26.10
2022-08-19T09:16:50.966Z,27.40
2022-08-19T09:17:51.084Z,25.10
2022-08-19T09:18:51.167Z,24.70
2022-08-19T09:19:51.320Z,23.20
2022-08-19T09:20:51.437Z,23.80
2022-08-19T09:21:51.602Z,23.60
2022-08-19T09:22:51.723Z,26.20
2022-08-19T09:23:51.834Z,25.60
2022-08-19T09:24:52.006Z,24.40
2022-08-19T09:25:52.033Z,25.20
2022-08-19T09:26:52.980Z,28.70
2022-08-19T09:27:52.249Z,24.10
2022-08-19T09:28:52.380Z,22.90
2022-08-19T09:29:52.557Z,24.20
2022-08-19T09:30:52.962Z,22.30
2022-08-19T09:31:52.727Z,23.00
2022-08-19T09:32:53.195Z,24.10
2022-08-19T09:33:52.954Z,22.60
2022-08-19T09:34:53.125Z,23.00
2022-08-19T09:35:53.963Z,21.30
2022-08-19T09:36:53.344Z,25.20
2022-08-19T09:37:57.779Z,22.50
2022-08-19T09:38:54.559Z,26.40
2022-08-19T09:39:53.771Z,23.90
2022-08-19T09:40:53.726Z,21.40
2022-08-19T09:41:53.875Z,21.50
2022-08-19T09:42:54.008Z,20.00
2022-08-19T09:43:54.113Z,24.40
2022-08-19T09:44:54.244Z,26.30
2022-08-19T09:45:54.374Z,22.00
2022-08-19T09:46:54.498Z,19.00
2022-08-19T09:47:55.309Z,19.20
2022-08-19T09:48:54.739Z,21.70
2022-08-19T09:49:54.900Z,23.10
2022-08-19T09:50:55.003Z,21.30
2022-08-19T09:51:55.146Z,23.20
2022-08-19T09:52:57.349Z,22.20
2022-08-19T09:54:04.666Z,21.40
2022-08-19T09:54:58.151Z,22.90
2022-08-19T09:55:55.584Z,20.60
2022-08-19T09:56:55.696Z,19.20
2022-08-19T09:57:55.801Z,21.80
2022-08-19T09:58:55.920Z,19.00
2022-08-19T09:59:56.052Z,21.40
2022-08-19T10:00:56.220Z,21.60
2022-08-19T10:01:56.261Z,20.30
2022-08-19T10:02:57.328Z,20.00
2022-08-19T10:03:56.451Z,21.30
2022-08-19T10:04:56.504Z,20.80
2022-08-19T10:05:56.541Z,20.30
2022-08-19T10:06:56.646Z,21.60
2022-08-19T10:07:56.910Z,21.00
2022-08-19T10:08:56.835Z,22.80
2022-08-19T10:09:56.945Z,22.70
2022-08-19T10:10:57.055Z,19.20
2022-08-19T10:11:57.145Z,21.60
2022-08-19T10:12:57.253Z,25.30
2022-08-19T10:13:57.361Z,20.80
2022-08-19T10:14:57.478Z,22.20
2022-08-19T10:15:57.784Z,20.40
2022-08-19T10:16:59.268Z,20.40
2022-08-19T10:17:58.767Z,18.70
2022-08-19T10:18:58.888Z,21.30
2022-08-19T10:19:57.924Z,20.20
2022-08-19T10:20:58.018Z,19.70
2022-08-19T10:22:00.355Z,22.60
2022-08-19T10:22:58.267Z,20.40
2022-08-19T10:23:58.382Z,21.90
2022-08-19T10:24:58.547Z,21.10
2022-08-19T10:25:58.597Z,24.30
2022-08-19T10:26:59.820Z,19.80
2022-08-19T10:27:58.699Z,19.70
2022-08-19T10:28:58.805Z,20.00
2022-08-19T10:29:58.881Z,20.40
2022-08-19T10:30:58.955Z,16.40
2022-08-19T10:32:00.521Z,16.80
2022-08-19T10:32:59.211Z,17.00
2022-08-19T10:33:59.324Z,18.00
2022-08-19T10:34:59.378Z,17.30
2022-08-19T10:35:59.477Z,18.80
2022-08-19T10:37:01.095Z,21.70
2022-08-19T10:38:02.157Z,16.20
2022-08-19T10:38:59.832Z,15.90
2022-08-19T10:39:59.917Z,17.80
2022-08-19T10:40:59.902Z,19.60
2022-08-19T10:42:00.179Z,15.90
2022-08-19T10:43:00.060Z,19.70
2022-08-19T10:44:04.516Z,17.50
2022-08-19T10:45:00.370Z,18.00
2022-08-19T10:46:00.390Z,16.20
2022-08-19T10:47:00.495Z,15.00
2022-08-19T10:48:00.593Z,21.40
2022-08-19T10:49:00.712Z,16.30
2022-08-19T10:50:00.824Z,18.00
2022-08-19T10:51:00.924Z,16.50
2022-08-19T10:52:00.994Z,18.20
2022-08-19T10:53:01.102Z,18.00
2022-08-19T10:54:02.161Z,20.00
2022-08-19T10:55:05.382Z,18.40
2022-08-19T10:56:02.340Z,18.80
2022-08-19T10:57:01.441Z,17.70
2022-08-19T10:58:02.783Z,17.30
2022-08-19T10:59:01.614Z,19.70
2022-08-19T11:00:01.756Z,18.80
2022-08-19T11:01:01.901Z,21.30
2022-08-19T11:02:02.000Z,17.20
2022-08-19T11:03:02.116Z,17.40
2022-08-19T11:04:02.227Z,18.70
2022-08-19T11:05:12.345Z,18.00
2022-08-19T11:06:03.412Z,21.40
2022-08-19T11:07:02.519Z,18.00
2022-08-19T11:08:02.916Z,18.30
2022-08-19T11:09:03.693Z,18.60
2022-08-19T11:10:02.817Z,18.50
2022-08-19T11:11:02.925Z,16.20
2022-08-19T11:12:04.822Z,16.60
2022-08-19T11:13:03.158Z,18.90
2022-08-19T11:14:03.285Z,17.30
2022-08-19T11:15:03.409Z,18.50
2022-08-19T11:16:07.313Z,18.30
2022-08-19T11:17:03.593Z,16.80
2022-08-19T11:18:03.694Z,16.30
2022-08-19T11:19:03.759Z,15.50
2022-08-19T11:20:03.876Z,18.30
2022-08-19T11:21:03.971Z,18.10
2022-08-19T11:22:04.131Z,16.70
2022-08-19T11:23:04.448Z,17.90
2022-08-19T11:24:04.359Z,17.60
2022-08-19T11:25:04.483Z,17.20
2022-08-19T11:26:04.593Z,18.70
2022-08-19T11:27:04.701Z,18.50
2022-08-19T11:28:04.811Z,19.80
2022-08-19T11:29:04.922Z,17.70
2022-08-19T11:30:05.061Z,17.40
2022-08-19T11:31:05.114Z,15.90
2022-08-19T11:32:05.231Z,18.80
2022-08-19T11:33:05.334Z,18.00
2022-08-19T11:34:05.449Z,17.90
2022-08-19T11:35:05.563Z,16.50
2022-08-19T11:36:05.668Z,15.40
2022-08-19T11:37:05.777Z,16.00
2022-08-19T11:38:09.725Z,16.70
2022-08-19T11:39:05.948Z,14.60
2022-08-19T11:40:06.126Z,18.20
2022-08-19T11:41:06.095Z,15.40
2022-08-19T11:42:06.211Z,15.00
2022-08-19T11:43:06.310Z,14.80
2022-08-19T11:44:06.423Z,14.10
2022-08-19T11:45:06.547Z,14.90
2022-08-19T11:46:06.652Z,16.30
2022-08-19T11:47:09.135Z,15.20
2022-08-19T11:48:06.812Z,15.70
2022-08-19T11:49:10.648Z,15.40
2022-08-19T11:50:08.013Z,15.20
2022-08-19T11:51:07.146Z,13.60
2022-08-19T11:52:07.234Z,13.70
2022-08-19T11:53:07.383Z,17.40
2022-08-19T11:54:07.480Z,17.20
2022-08-19T11:55:07.579Z,14.40
2022-08-19T11:56:07.696Z,14.60
2022-08-19T11:57:07.773Z,15.00
2022-08-19T11:58:07.872Z,14.40
2022-08-19T11:59:12.846Z,14.50
2022-08-19T12:00:09.069Z,13.80
2022-08-19T12:01:08.172Z,13.60
2022-08-19T12:02:08.280Z,11.70
2022-08-19T12:03:08.398Z,12.20
2022-08-19T12:04:08.564Z,13.80
2022-08-19T12:05:12.291Z,13.10
2022-08-19T12:06:08.652Z,13.50
2022-08-19T12:07:08.749Z,14.70
2022-08-19T12:08:08.860Z,13.70
2022-08-19T12:09:08.968Z,14.00
2022-08-19T12:10:09.235Z,13.10
2022-08-19T12:11:09.261Z,12.50
2022-08-19T12:12:09.361Z,12.20
2022-08-19T12:13:09.462Z,12.50
2022-08-19T12:14:09.829Z,13.10
2022-08-19T12:15:09.654Z,15.10
2022-08-19T12:16:09.786Z,15.00
2022-08-19T12:17:09.908Z,17.80
2022-08-19T12:18:10.012Z,12.30
2022-08-19T12:19:10.158Z,13.80
2022-08-19T12:20:10.278Z,13.40
2022-08-19T12:21:10.392Z,12.60
2022-08-19T12:22:10.506Z,12.40
2022-08-19T12:23:10.611Z,12.60
2022-08-19T12:24:10.724Z,14.10
2022-08-19T12:25:10.830Z,12.00
2022-08-19T12:26:10.962Z,11.50
2022-08-19T12:27:12.753Z,11.90
2022-08-19T12:28:11.163Z,13.40
2022-08-19T12:29:11.274Z,11.30
2022-08-19T12:30:11.381Z,11.70
2022-08-19T12:31:11.500Z,10.00
2022-08-19T12:32:12.173Z,11.00
2022-08-19T12:33:11.690Z,12.70
2022-08-19T12:34:11.793Z,11.70
2022-08-19T12:35:11.900Z,10.30
2022-08-19T12:36:12.038Z,10.20
2022-08-19T12:37:12.132Z,11.80
2022-08-19T12:38:12.236Z,12.00
2022-08-19T12:39:12.345Z,12.60
2022-08-19T12:40:12.492Z,12.80
2022-08-19T12:41:12.527Z,11.90
2022-08-19T12:42:12.642Z,11.90
2022-08-19T12:43:12.744Z,11.70
2022-08-19T12:44:12.854Z,11.30
2022-08-19T12:45:12.993Z,12.40
2022-08-19T12:46:13.376Z,11.80
2022-08-19T12:47:13.142Z,10.60